Time;durP1;ratioP1;P1;durP2;ratioP2;P2;SDS_P1;SDS_P2;PMS_P1;PMS_P2;Temp;Humidity;BMP_temperature;BMP_pressure;BME280_temperature;BME280_humidity;BME280_pressure;Samples;Min_cycle;Max_cycle;Signal;HPM_P1;HPM_P2
2022/12/21 00:00:52;;;;;;;133.48;22.88;;;7.50;99.90;;;;;;5139228;28;20031;-59
2022/12/21 00:03:17;;;;;;;139.38;22.98;;;7.10;99.90;;;;;;5138223;28;20046;-57
2022/12/21 00:05:43;;;;;;;162.00;23.45;;;7.40;99.90;;;;;;5121309;28;20139;-58
2022/12/21 00:08:09;;;;;;;117.53;22.85;;;7.50;99.90;;;;;;5139238;28;20036;-58
2022/12/21 00:10:34;;;;;;;143.65;23.17;;;7.10;99.90;;;;;;5139683;28;20062;-58
2022/12/21 00:13:00;;;;;;;133.73;21.90;;;7.30;99.90;;;;;;5139223;28;20141;-58
2022/12/21 00:15:26;;;;;;;152.90;23.85;;;7.30;99.90;;;;;;5139488;28;20076;-58
2022/12/21 00:17:52;;;;;;;70.65;20.13;;;7.30;99.90;;;;;;5139156;28;20043;-57
2022/12/21 00:20:17;;;;;;;87.07;21.70;;;7.30;99.90;;;;;;5140192;27;20043;-57
2022/12/21 00:22:43;;;;;;;153.18;23.35;;;7.30;99.90;;;;;;5124987;27;20126;-56
2022/12/21 00:25:09;;;;;;;84.10;20.73;;;7.30;99.90;;;;;;5143354;27;20043;-58
2022/12/21 00:27:35;;;;;;;133.25;21.20;;;7.00;99.90;;;;;;5124840;27;20047;-58
2022/12/21 00:30:00;;;;;;;176.73;23.95;;;7.20;99.90;;;;;;5143197;27;20058;-58
2022/12/21 00:32:26;;;;;;;149.82;21.95;;;7.20;99.90;;;;;;5142369;27;20157;-58
2022/12/21 00:34:52;;;;;;;106.68;19.75;;;7.20;99.90;;;;;;5143026;27;20050;-58
2022/12/21 00:37:18;;;;;;;83.95;18.42;;;6.80;99.90;;;;;;5143371;27;20044;-57
2022/12/21 00:39:43;;;;;;;120.75;20.65;;;6.80;99.90;;;;;;5143276;27;20036;-58
2022/12/21 00:42:09;;;;;;;111.32;18.48;;;6.80;99.90;;;;;;5142721;27;20082;-58
2022/12/21 00:44:35;;;;;;;112.78;18.02;;;6.70;99.90;;;;;;5143055;27;20046;-57
2022/12/21 00:47:00;;;;;;;93.07;17.13;;;6.70;99.90;;;;;;5142983;27;20061;-58
2022/12/21 00:49:26;;;;;;;93.70;16.77;;;7.10;99.90;;;;;;5143175;27;20054;-58
2022/12/21 00:51:52;;;;;;;85.00;18.23;;;6.90;99.90;;;;;;5142948;27;20074;-58
2022/12/21 00:54:17;;;;;;;93.13;16.67;;;7.00;99.90;;;;;;5142917;27;20035;-58
2022/12/21 00:56:43;;;;;;;58.13;16.30;;;6.60;99.90;;;;;;5142847;27;20089;-58
2022/12/21 00:59:09;;;;;;;71.47;17.42;;;6.90;99.90;;;;;;5142754;27;20043;-58
2022/12/21 01:01:35;;;;;;;59.33;14.95;;;6.90;99.90;;;;;;5142807;27;20050;-58
2022/12/21 01:04:02;;;;;;;61.40;15.23;;;6.60;99.90;;;;;;5142642;27;20043;-58
2022/12/21 01:06:30;;;;;;;62.17;14.95;;;6.90;99.90;;;;;;5142845;27;20618;-57
2022/12/21 01:08:56;;;;;;;49.45;15.48;;;6.70;99.90;;;;;;5124355;27;20091;-58
2022/12/21 01:11:24;;;;;;;45.58;15.82;;;6.90;99.90;;;;;;5142327;27;20184;-58
2022/12/21 01:13:51;;;;;;;58.92;16.45;;;6.60;99.90;;;;;;5142126;27;20039;-57
2022/12/21 01:16:19;;;;;;;41.58;14.27;;;6.70;99.90;;;;;;5142681;27;20039;-58
2022/12/21 01:18:46;;;;;;;62.60;15.43;;;6.90;99.90;;;;;;5142769;27;20046;-57
2022/12/21 01:21:21;;;;;;;47.53;15.45;;;6.80;99.90;;;;;;5142188;27;20076;-57
2022/12/21 01:23:48;;;;;;;42.65;15.25;;;6.70;99.90;;;;;;5142382;27;20046;-57
2022/12/21 01:26:14;;;;;;;40.20;14.45;;;6.90;99.90;;;;;;5140626;27;20431;-57
2022/12/21 01:28:40;;;;;;;47.85;14.23;;;6.40;99.90;;;;;;5142345;27;20040;-57
2022/12/21 01:31:06;;;;;;;33.95;15.32;;;6.70;99.90;;;;;;5142150;27;20047;-57
2022/12/21 01:33:32;;;;;;;42.08;13.65;;;6.40;99.90;;;;;;5123658;27;20046;-58
2022/12/21 01:36:04;;;;;;;36.20;14.25;;;6.40;99.90;;;;;;5142604;27;20039;-57
2022/12/21 01:38:29;;;;;;;47.35;14.27;;;6.70;99.90;;;;;;5141644;27;20031;-57
2022/12/21 01:40:55;;;;;;;61.85;15.05;;;6.60;99.90;;;;;;5142147;27;20072;-58
2022/12/21 01:43:39;;;;;;;58.25;14.68;;;6.60;99.90;;;;;;5141475;27;20107;-57
2022/12/21 01:46:36;;;;;;;48.03;14.30;;;6.60;99.90;;;;;;5142343;27;20051;-58
2022/12/21 01:49:16;;;;;;;78.80;17.38;;;6.60;99.90;;;;;;5119641;27;20070;-57
2022/12/21 01:51:46;;;;;;;93.18;16.75;;;6.60;99.90;;;;;;5141927;27;20054;-57
2022/12/21 01:54:31;;;;;;;70.72;17.58;;;6.40;99.90;;;;;;5141814;27;20099;-57
2022/12/21 01:56:59;;;;;;;106.22;16.02;;;6.20;99.90;;;;;;5141679;27;20039;-57
2022/12/21 01:59:39;;;;;;;131.85;19.17;;;6.50;99.90;;;;;;5141385;27;20045;-57
2022/12/21 02:02:15;;;;;;;78.18;15.80;;;6.30;99.90;;;;;;5141990;27;20533;-58
2022/12/21 02:04:42;;;;;;;80.70;17.05;;;6.40;99.90;;;;;;5141048;27;20147;-58
2022/12/21 02:07:07;;;;;;;94.97;17.63;;;6.50;99.90;;;;;;5123380;27;20049;-58
2022/12/21 02:09:35;;;;;;;75.88;16.90;;;6.20;99.90;;;;;;5141178;27;20071;-57
2022/12/21 02:12:04;;;;;;;138.93;19.35;;;6.50;99.90;;;;;;5141158;27;20059;-58
2022/12/21 02:14:33;;;;;;;70.22;16.17;;;6.30;99.90;;;;;;5141653;27;20369;-57
2022/12/21 02:17:33;;;;;;;160.73;18.83;;;6.40;99.90;;;;;;5122705;27;20046;-58
2022/12/21 02:20:36;;;;;;;86.97;15.93;;;6.40;99.90;;;;;;5141358;27;20515;-57
2022/12/21 02:23:33;;;;;;;74.18;15.18;;;6.40;99.90;;;;;;5122900;27;20047;-57
2022/12/21 02:26:17;;;;;;;115.32;17.08;;;5.90;99.90;;;;;;5141007;27;20047;-58
2022/12/21 02:29:16;;;;;;;67.95;15.43;;;6.40;99.90;;;;;;5141214;27;20039;-58
2022/12/21 02:31:41;;;;;;;69.68;15.65;;;6.20;99.90;;;;;;5141140;27;20081;-57
2022/12/21 02:34:26;;;;;;;84.25;16.15;;;6.10;99.90;;;;;;5140622;27;20035;-57
2022/12/21 02:37:05;;;;;;;102.03;16.77;;;6.10;99.90;;;;;;5141371;27;20113;-57
2022/12/21 02:39:39;;;;;;;62.85;14.40;;;6.00;99.90;;;;;;5140863;27;20043;-56
2022/12/21 02:44:12;;;;;;;57.92;13.48;;;6.00;99.90;;;;;;5140692;27;20043;-58
2022/12/21 02:45:22;;;;;;;87.10;14.13;;;6.00;99.90;;;;;;5140291;27;20043;-58
2022/12/21 02:48:29;;;;;;;107.25;15.52;;;6.00;99.90;;;;;;5140857;27;20070;-58
2022/12/21 02:50:59;;;;;;;67.38;13.90;;;6.00;99.90;;;;;;5140563;27;20871;-58
2022/12/21 02:53:34;;;;;;;87.35;14.07;;;5.80;99.90;;;;;;5140998;27;20054;-58
2022/12/21 02:56:00;;;;;;;75.22;12.75;;;5.90;99.90;;;;;;5140546;27;20101;-58
2022/12/21 02:58:25;;;;;;;101.32;13.95;;;6.10;99.90;;;;;;5140649;27;20051;-57
2022/12/21 03:00:51;;;;;;;79.10;14.30;;;5.70;99.90;;;;;;5140416;27;20064;-57
2022/12/21 03:03:47;;;;;;;114.30;14.55;;;6.00;99.90;;;;;;5140532;27;20050;-57
2022/12/21 03:06:38;;;;;;;121.63;15.75;;;6.10;99.90;;;;;;5140488;27;20035;-58
2022/12/21 03:09:13;;;;;;;82.05;13.30;;;6.00;99.90;;;;;;5140213;27;20043;-58
2022/12/21 03:12:21;;;;;;;78.65;13.40;;;6.20;99.90;;;;;;5139971;27;20058;-56
2022/12/21 03:15:14;;;;;;;108.75;14.25;;;6.10;99.90;;;;;;5139748;27;20502;-57
2022/12/21 03:17:49;;;;;;;69.65;12.88;;;5.90;99.90;;;;;;5121747;27;20054;-57
2022/12/21 03:20:25;;;;;;;86.80;14.45;;;5.90;99.90;;;;;;5140209;27;20403;-57
2022/12/21 03:23:05;;;;;;;74.13;12.55;;;6.30;99.90;;;;;;5140110;27;20092;-57
2022/12/21 03:25:54;;;;;;;62.72;12.60;;;6.10;99.90;;;;;;5122784;27;20043;-57
2022/12/21 03:28:27;;;;;;;69.20;11.30;;;5.90;99.90;;;;;;5139778;27;20187;-56
2022/12/21 03:30:56;;;;;;;48.72;11.05;;;6.20;99.90;;;;;;5140072;27;20082;-56
2022/12/21 03:33:27;;;;;;;65.55;11.30;;;6.00;99.90;;;;;;5139736;27;20035;-57
2022/12/21 03:36:22;;;;;;;82.88;11.60;;;5.90;99.90;;;;;;5140310;27;20054;-57
2022/12/21 03:38:59;;;;;;;75.45;11.05;;;5.90;99.90;;;;;;5139799;27;20039;-57
2022/12/21 03:41:50;;;;;;;110.18;12.30;;;5.90;99.90;;;;;;5140183;27;20068;-57
2022/12/21 03:44:24;;;;;;;55.30;10.00;;;6.00;99.90;;;;;;5102600;27;20588;-57
2022/12/21 03:46:59;;;;;;;117.22;11.80;;;5.60;99.90;;;;;;5139608;27;20031;-57
2022/12/21 03:49:33;;;;;;;78.65;10.80;;;5.60;99.90;;;;;;5140115;28;20112;-57
2022/12/21 03:52:07;;;;;;;65.50;10.13;;;5.90;99.90;;;;;;5139489;28;20047;-57
2022/12/21 03:55:00;;;;;;;63.40;11.20;;;5.90;99.90;;;;;;5121463;27;20112;-56
2022/12/21 03:57:27;;;;;;;85.03;10.98;;;5.60;99.90;;;;;;5144218;27;20122;-57
2022/12/21 03:59:58;;;;;;;82.78;11.25;;;5.80;99.90;;;;;;5143763;27;20043;-57
2022/12/21 04:02:30;;;;;;;45.55;9.65;;;5.70;99.90;;;;;;5143697;27;20039;-58
2022/12/21 04:04:58;;;;;;;92.25;11.15;;;5.50;99.90;;;;;;5159071;27;20126;-57
2022/12/21 04:07:26;;;;;;;63.33;9.80;;;5.90;99.90;;;;;;5164957;27;20075;-57
2022/12/21 04:09:59;;;;;;;60.08;10.10;;;5.60;99.90;;;;;;5163693;27;20059;-57
2022/12/21 04:12:39;;;;;;;100.07;12.45;;;5.70;99.90;;;;;;5164267;27;20046;-57
2022/12/21 04:15:17;;;;;;;88.93;12.35;;;5.70;99.90;;;;;;5146059;27;20043;-56
2022/12/21 04:17:46;;;;;;;70.70;10.68;;;5.70;99.90;;;;;;5164623;27;20035;-57
2022/12/21 04:20:19;;;;;;;68.28;11.82;;;5.50;99.90;;;;;;5164597;27;20047;-57
2022/12/21 04:28:18;;;;;;;64.15;12.75;;;5.50;99.90;;;;;;5164276;27;20110;-57
2022/12/21 04:30:45;;;;;;;65.80;11.43;;;5.70;99.90;;;;;;5163918;27;20057;-57
2022/12/21 04:33:14;;;;;;;88.10;13.68;;;5.60;99.90;;;;;;5164534;27;20079;-57
2022/12/21 04:38:25;;;;;;;78.55;13.63;;;5.70;99.90;;;;;;5164128;27;20081;-57
2022/12/21 04:40:53;;;;;;;51.60;11.40;;;6.10;99.90;;;;;;5163778;27;20038;-59
2022/12/21 04:43:20;;;;;;;104.38;12.80;;;5.90;99.90;;;;;;5163764;27;20478;-58
2022/12/21 04:45:46;;;;;;;56.85;12.07;;;5.50;99.90;;;;;;5164244;27;20038;-57
2022/12/21 04:48:12;;;;;;;70.63;13.10;;;5.50;99.90;;;;;;5164126;27;20064;-57
2022/12/21 04:50:38;;;;;;;53.80;11.82;;;5.80;99.90;;;;;;5164146;27;20046;-58
2022/12/21 04:53:04;;;;;;;47.78;12.82;;;5.60;99.90;;;;;;5164325;27;20065;-58
2022/12/21 04:55:30;;;;;;;70.00;13.32;;;5.60;99.90;;;;;;5156886;27;20158;-58
2022/12/21 04:57:55;;;;;;;76.15;14.55;;;5.90;99.90;;;;;;5143141;27;20043;-57
2022/12/21 05:00:21;;;;;;;38.22;10.80;;;5.90;99.90;;;;;;5142879;27;20039;-58
2022/12/21 05:02:47;;;;;;;68.25;14.20;;;5.50;99.90;;;;;;5124638;27;20130;-58
2022/12/21 05:05:12;;;;;;;75.28;12.45;;;5.60;99.90;;;;;;5143115;27;20876;-57
2022/12/21 05:07:38;;;;;;;35.70;11.38;;;5.60;99.90;;;;;;5106963;27;20521;-58
2022/12/21 05:10:04;;;;;;;39.92;11.88;;;5.70;99.90;;;;;;5142945;27;20080;-58
2022/12/21 05:12:29;;;;;;;46.55;12.48;;;5.70;99.90;;;;;;5141208;27;20062;-56
2022/12/21 05:14:55;;;;;;;36.45;10.05;;;5.70;99.90;;;;;;5142133;27;20564;-58
2022/12/21 05:17:21;;;;;;;61.45;12.38;;;5.80;99.90;;;;;;5140984;27;20061;-57
2022/12/21 05:19:46;;;;;;;40.58;11.05;;;5.80;99.90;;;;;;5142195;27;20054;-57
2022/12/21 05:22:16;;;;;;;90.68;12.45;;;5.60;99.90;;;;;;5122547;27;20495;-57
2022/12/21 05:24:43;;;;;;;74.53;12.63;;;5.50;99.90;;;;;;5141853;27;20458;-60
2022/12/21 05:27:09;;;;;;;45.17;10.75;;;5.50;99.90;;;;;;5141431;27;20035;-57
2022/12/21 05:29:34;;;;;;;51.33;10.98;;;5.80;99.90;;;;;;5141054;27;20058;-57
2022/12/21 05:32:00;;;;;;;46.03;10.75;;;5.90;99.90;;;;;;5106187;27;20050;-57
2022/12/21 05:34:26;;;;;;;77.07;12.18;;;5.70;99.90;;;;;;5140562;27;20039;-57
2022/12/21 05:36:51;;;;;;;69.30;12.82;;;6.00;99.90;;;;;;5141599;27;20043;-57
2022/12/21 05:39:17;;;;;;;48.47;11.57;;;5.50;99.90;;;;;;5141190;27;20098;-58
2022/12/21 05:41:43;;;;;;;85.40;13.43;;;5.50;99.90;;;;;;5141278;27;20085;-57
2022/12/21 05:44:09;;;;;;;69.10;12.68;;;5.60;99.90;;;;;;5141027;27;20356;-57
2022/12/21 05:46:35;;;;;;;73.78;12.95;;;5.90;99.90;;;;;;5140500;27;20043;-57
2022/12/21 05:49:00;;;;;;;59.25;12.60;;;5.50;99.90;;;;;;5141654;27;20074;-58
2022/12/21 05:51:26;;;;;;;67.75;12.40;;;5.90;99.90;;;;;;5140322;27;20071;-57
2022/12/21 05:53:53;;;;;;;65.75;12.43;;;5.90;99.90;;;;;;5105425;27;20175;-57
2022/12/21 05:56:19;;;;;;;51.47;10.90;;;5.90;99.90;;;;;;5140256;27;20047;-57
2022/12/21 05:58:44;;;;;;;74.13;12.40;;;5.90;99.90;;;;;;5141291;27;20054;-57
2022/12/21 06:01:11;;;;;;;71.22;13.25;;;5.80;99.90;;;;;;5140366;27;20057;-56
2022/12/21 06:03:37;;;;;;;80.75;13.27;;;5.80;99.90;;;;;;5140235;27;20086;-57
2022/12/21 06:06:10;;;;;;;52.30;11.98;;;5.60;99.90;;;;;;5140597;27;20091;-58
2022/12/21 06:08:36;;;;;;;77.00;12.40;;;5.70;99.90;;;;;;5139938;27;20077;-58
2022/12/21 06:11:09;;;;;;;100.22;13.40;;;5.60;99.90;;;;;;5140607;27;20043;-57
2022/12/21 06:13:35;;;;;;;65.57;12.63;;;5.70;99.90;;;;;;5139573;27;20047;-57
2022/12/21 06:16:07;;;;;;;40.95;11.10;;;5.50;99.90;;;;;;5140604;27;20139;-58
2022/12/21 06:18:33;;;;;;;59.30;11.80;;;5.50;99.90;;;;;;5139433;27;20505;-58
2022/12/21 06:20:59;;;;;;;71.95;12.50;;;5.50;99.90;;;;;;5140103;27;20051;-58
2022/12/21 06:23:25;;;;;;;49.97;11.90;;;5.80;99.90;;;;;;5140760;27;20039;-58
2022/12/21 06:25:55;;;;;;;76.32;13.10;;;5.60;99.90;;;;;;5139774;27;20055;-58
2022/12/21 06:28:22;;;;;;;68.28;12.50;;;5.90;99.90;;;;;;5140286;27;20176;-59
2022/12/21 06:30:50;;;;;;;84.10;13.07;;;5.90;99.90;;;;;;5137437;27;20070;-56
2022/12/21 06:33:16;;;;;;;77.45;13.50;;;5.90;99.90;;;;;;5136448;27;20406;-58
2022/12/21 06:35:42;;;;;;;63.95;12.50;;;6.00;99.90;;;;;;5136413;27;20039;-58
2022/12/21 06:38:08;;;;;;;61.22;13.10;;;5.50;99.90;;;;;;5135729;27;20247;-58
2022/12/21 06:40:33;;;;;;;49.53;11.52;;;5.90;99.90;;;;;;5136461;27;20051;-59
2022/12/21 06:42:59;;;;;;;85.90;14.20;;;6.00;99.90;;;;;;5135011;27;20056;-58
2022/12/21 06:45:25;;;;;;;71.20;13.07;;;5.90;99.90;;;;;;5117514;27;20055;-57
2022/12/21 06:47:54;;;;;;;75.32;13.57;;;5.90;99.90;;;;;;5135540;27;20103;-58
2022/12/21 06:50:21;;;;;;;56.38;13.02;;;5.90;99.90;;;;;;5117796;27;20043;-59
2022/12/21 06:52:47;;;;;;;71.72;13.63;;;5.50;99.90;;;;;;5135624;27;20076;-57
2022/12/21 06:55:13;;;;;;;78.20;13.90;;;5.60;99.90;;;;;;5139943;27;20086;-58
2022/12/21 06:57:39;;;;;;;95.25;14.82;;;5.50;99.90;;;;;;5156409;27;20039;-58
2022/12/21 07:00:05;;;;;;;38.65;12.57;;;5.50;99.90;;;;;;5137346;27;20034;-58
2022/12/21 07:02:31;;;;;;;49.33;14.25;;;6.00;99.90;;;;;;5156812;27;20042;-58
2022/12/21 07:04:57;;;;;;;51.90;13.20;;;5.80;99.90;;;;;;5156000;27;20240;-59
2022/12/21 07:07:23;;;;;;;55.50;13.77;;;5.90;99.90;;;;;;5156398;27;20061;-58
2022/12/21 07:09:50;;;;;;;55.10;13.63;;;5.60;99.90;;;;;;5156093;27;20064;-58
2022/12/21 07:12:15;;;;;;;54.22;13.55;;;5.90;99.90;;;;;;5155627;27;20042;-58
2022/12/21 07:14:41;;;;;;;36.63;13.20;;;5.40;99.90;;;;;;5147891;27;20038;-58
2022/12/21 07:17:07;;;;;;;52.63;14.00;;;5.60;99.90;;;;;;5143057;27;20061;-58
2022/12/21 07:19:34;;;;;;;51.45;13.75;;;5.70;99.90;;;;;;5140878;27;20117;-58
2022/12/21 07:21:59;;;;;;;38.72;11.45;;;5.50;99.90;;;;;;5145242;27;20043;-58
2022/12/21 07:24:25;;;;;;;78.38;14.13;;;5.60;99.90;;;;;;5116727;28;20047;-58
2022/12/21 07:26:51;;;;;;;42.63;12.38;;;5.80;99.90;;;;;;5140343;27;20046;-58
2022/12/21 07:29:16;;;;;;;35.20;11.10;;;5.70;99.90;;;;;;5143805;27;20047;-58
2022/12/21 07:31:42;;;;;;;38.60;11.70;;;5.80;99.90;;;;;;5149806;27;20067;-57
2022/12/21 07:34:07;;;;;;;36.60;11.63;;;5.80;99.90;;;;;;5155332;27;20045;-58
2022/12/21 07:36:33;;;;;;;38.17;11.98;;;5.60;99.90;;;;;;5156082;27;20046;-58
2022/12/21 07:38:59;;;;;;;68.75;14.45;;;5.70;99.90;;;;;;5155059;27;20038;-58
2022/12/21 07:41:24;;;;;;;39.47;12.57;;;5.90;99.90;;;;;;5156002;27;20047;-58
2022/12/21 07:43:50;;;;;;;32.67;12.27;;;6.00;99.90;;;;;;5154501;27;20042;-57
2022/12/21 07:46:16;;;;;;;33.47;12.15;;;6.00;99.90;;;;;;5155898;27;20050;-59
2022/12/21 07:48:42;;;;;;;33.95;12.27;;;5.90;99.90;;;;;;5156032;27;20042;-58
2022/12/21 07:51:08;;;;;;;43.80;13.05;;;6.10;99.90;;;;;;5155237;27;20470;-58
2022/12/21 07:53:34;;;;;;;35.47;12.75;;;5.90;99.90;;;;;;5155491;27;20096;-58
2022/12/21 07:56:03;;;;;;;41.67;12.70;;;5.90;99.90;;;;;;5143390;27;20053;-58
2022/12/21 07:58:28;;;;;;;46.88;13.38;;;5.70;99.90;;;;;;5116860;28;20053;-56
2022/12/21 08:00:54;;;;;;;52.85;13.40;;;6.00;99.90;;;;;;5134379;28;20634;-57
2022/12/21 08:03:20;;;;;;;45.47;14.02;;;5.90;99.90;;;;;;5138952;27;20154;-57
2022/12/21 08:05:45;;;;;;;41.08;13.43;;;5.70;99.90;;;;;;5145531;27;20492;-57
2022/12/21 08:08:11;;;;;;;34.78;13.77;;;6.10;99.90;;;;;;5151626;27;20232;-57
2022/12/21 08:10:37;;;;;;;38.42;14.52;;;6.10;99.90;;;;;;5155471;27;20082;-57
2022/12/21 08:13:02;;;;;;;40.42;14.52;;;6.00;99.90;;;;;;5154537;27;20049;-57
2022/12/21 08:15:28;;;;;;;40.75;13.70;;;5.70;99.90;;;;;;5155648;27;20071;-57
2022/12/21 08:17:53;;;;;;;55.00;14.68;;;5.90;99.90;;;;;;5129553;27;20080;-57
2022/12/21 08:20:20;;;;;;;41.40;13.45;;;5.70;99.90;;;;;;5144720;27;20074;-57
2022/12/21 08:22:46;;;;;;;49.22;13.50;;;6.00;99.90;;;;;;5126324;27;20083;-57
2022/12/21 08:25:12;;;;;;;38.05;15.05;;;6.00;99.90;;;;;;5151824;27;20042;-57
2022/12/21 08:27:37;;;;;;;39.22;14.55;;;5.60;99.90;;;;;;5155752;27;20050;-57
2022/12/21 08:30:04;;;;;;;38.85;14.63;;;5.90;99.90;;;;;;5154567;27;20050;-57
2022/12/21 08:32:30;;;;;;;38.30;14.82;;;5.80;99.90;;;;;;5136521;27;20468;-58
2022/12/21 08:34:56;;;;;;;43.13;16.20;;;6.10;99.90;;;;;;5147918;27;20073;-57
2022/12/21 08:37:22;;;;;;;48.95;16.10;;;6.00;99.90;;;;;;5145835;27;20108;-58
2022/12/21 08:39:48;;;;;;;31.00;13.25;;;5.80;99.90;;;;;;5148799;27;20082;-57
2022/12/21 08:42:14;;;;;;;48.72;14.63;;;6.00;99.90;;;;;;5156675;27;20095;-57
2022/12/21 08:44:39;;;;;;;37.45;14.95;;;5.70;99.90;;;;;;5159167;27;20119;-56
2022/12/21 08:47:06;;;;;;;90.72;17.83;;;6.00;99.90;;;;;;5161306;27;20083;-58
2022/12/21 08:49:32;;;;;;;42.28;13.93;;;5.70;99.90;;;;;;5162903;27;20139;-58
2022/12/21 08:51:58;;;;;;;46.47;14.30;;;6.00;99.90;;;;;;5162208;27;20043;-57
2022/12/21 08:54:25;;;;;;;34.90;13.60;;;5.70;99.90;;;;;;5163083;27;20064;-58
2022/12/21 08:56:50;;;;;;;42.28;14.27;;;5.90;99.90;;;;;;5144285;27;20051;-58
2022/12/21 08:59:16;;;;;;;46.08;14.52;;;5.80;99.90;;;;;;5141839;27;20039;-57
2022/12/21 09:01:42;;;;;;;46.15;14.32;;;6.10;99.90;;;;;;5142294;27;20053;-57
2022/12/21 09:04:07;;;;;;;43.03;14.93;;;5.90;99.90;;;;;;5141481;27;20046;-58
2022/12/21 09:06:33;;;;;;;46.45;15.63;;;5.80;99.90;;;;;;5142066;27;20076;-58
2022/12/21 09:08:59;;;;;;;34.65;14.07;;;6.20;99.90;;;;;;5141524;27;20122;-59
2022/12/21 09:11:24;;;;;;;40.33;15.30;;;5.80;99.90;;;;;;5141547;27;20067;-58
2022/12/21 09:13:50;;;;;;;39.47;14.93;;;5.80;99.90;;;;;;5141063;27;20122;-57
2022/12/21 09:16:17;;;;;;;35.20;15.32;;;6.10;99.90;;;;;;5141523;27;20089;-58
2022/12/21 09:18:43;;;;;;;42.38;15.73;;;6.00;99.90;;;;;;5150002;27;20081;-58
2022/12/21 09:21:10;;;;;;;36.67;14.95;;;6.30;99.90;;;;;;5149703;27;20488;-57
2022/12/21 09:23:35;;;;;;;42.30;16.15;;;6.30;99.90;;;;;;5151363;27;20038;-59
2022/12/21 09:26:04;;;;;;;30.95;15.80;;;6.00;99.90;;;;;;5151417;27;20114;-57
2022/12/21 09:28:29;;;;;;;38.63;16.15;;;6.40;99.90;;;;;;5150574;27;20440;-58
2022/12/21 09:30:56;;;;;;;36.58;16.05;;;6.00;99.90;;;;;;5150812;27;20034;-57
2022/12/21 09:33:23;;;;;;;40.28;16.05;;;6.20;99.90;;;;;;5152021;27;20395;-58
2022/12/21 09:35:52;;;;;;;40.28;16.65;;;6.20;99.90;;;;;;5150013;27;20039;-57
2022/12/21 09:38:18;;;;;;;38.08;17.48;;;6.10;99.90;;;;;;5150312;27;20042;-57
2022/12/21 09:40:45;;;;;;;42.55;17.00;;;6.40;99.90;;;;;;5152165;27;20042;-58
2022/12/21 09:43:29;;;;;;;41.70;15.88;;;6.50;99.90;;;;;;5149546;27;20566;-57
2022/12/21 09:46:11;;;;;;;41.97;16.75;;;6.30;99.90;;;;;;5151011;27;20039;-57
2022/12/21 09:49:03;;;;;;;49.42;19.00;;;6.50;99.90;;;;;;5141351;27;20539;-60
2022/12/21 09:51:32;;;;;;;45.40;18.30;;;6.30;99.90;;;;;;5140049;27;20039;-57
2022/12/21 09:54:04;;;;;;;42.10;16.60;;;6.40;99.90;;;;;;5140035;27;20502;-57
2022/12/21 09:56:30;;;;;;;38.95;16.63;;;6.50;99.90;;;;;;5155632;27;20057;-56
2022/12/21 09:59:00;;;;;;;41.63;17.08;;;6.10;99.90;;;;;;5161762;27;20053;-57
2022/12/21 10:01:53;;;;;;;40.08;18.02;;;6.30;99.90;;;;;;5161815;27;20100;-56
2022/12/21 10:04:48;;;;;;;47.65;18.00;;;6.50;99.90;;;;;;5160977;27;20100;-57
2022/12/21 10:07:51;;;;;;;50.45;18.05;;;6.50;99.90;;;;;;5158387;27;20058;-57
2022/12/21 10:10:29;;;;;;;48.28;18.40;;;6.20;99.90;;;;;;5139630;27;20065;-57
2022/12/21 10:12:57;;;;;;;44.90;17.88;;;6.70;99.90;;;;;;5139642;27;20102;-57
2022/12/21 10:15:48;;;;;;;38.63;17.20;;;6.30;99.90;;;;;;5140509;27;20031;-57
2022/12/21 10:18:39;;;;;;;41.25;17.73;;;6.40;99.90;;;;;;5140340;27;20083;-56
2022/12/21 10:21:47;;;;;;;48.40;19.58;;;6.50;99.90;;;;;;5139504;27;20043;-57
2022/12/21 10:24:50;;;;;;;47.50;18.20;;;6.60;99.90;;;;;;5117246;27;20164;-57
2022/12/21 10:27:27;;;;;;;45.65;19.52;;;6.30;99.90;;;;;;5108134;27;20083;-57
2022/12/21 10:29:57;;;;;;;49.47;20.42;;;6.70;99.90;;;;;;5139389;27;20066;-57
2022/12/21 10:32:31;;;;;;;50.05;23.13;;;6.50;99.90;;;;;;5140367;27;20184;-57
2022/12/21 10:35:20;;;;;;;52.47;21.83;;;6.50;99.90;;;;;;5139349;27;20035;-57
2022/12/21 10:37:52;;;;;;;50.03;21.13;;;6.90;99.90;;;;;;5139880;27;20035;-57
2022/12/21 10:40:20;;;;;;;55.77;22.70;;;6.90;99.90;;;;;;5140159;27;20035;-56
2022/12/21 10:42:49;;;;;;;49.70;21.27;;;6.60;99.90;;;;;;5138876;27;20515;-57
2022/12/21 10:45:17;;;;;;;54.17;23.92;;;6.70;99.90;;;;;;5139721;27;20047;-57
2022/12/21 10:47:44;;;;;;;54.70;24.63;;;7.10;99.90;;;;;;5139104;27;20062;-56
2022/12/21 10:50:26;;;;;;;56.15;25.02;;;7.00;99.90;;;;;;5140033;27;20077;-57
2022/12/21 10:52:56;;;;;;;55.25;26.30;;;6.80;99.90;;;;;;5138824;27;20043;-57
2022/12/21 10:55:22;;;;;;;52.75;24.30;;;7.20;99.90;;;;;;5133057;27;20036;-57
2022/12/21 10:57:51;;;;;;;53.25;23.33;;;7.10;99.90;;;;;;5119025;28;20060;-58
2022/12/21 11:00:29;;;;;;;54.70;24.05;;;6.90;99.90;;;;;;5129162;27;20118;-57
2022/12/21 11:02:58;;;;;;;50.00;23.25;;;6.90;99.90;;;;;;5139580;27;20046;-58
2022/12/21 11:05:33;;;;;;;53.53;23.33;;;7.10;99.90;;;;;;5138050;27;20409;-57
2022/12/21 11:08:14;;;;;;;47.85;21.92;;;7.00;99.90;;;;;;5132678;27;20041;-57
2022/12/21 11:10:43;;;;;;;45.58;21.30;;;7.20;99.90;;;;;;5138938;27;20054;-57
2022/12/21 11:13:11;;;;;;;47.70;20.20;;;7.00;99.90;;;;;;5147207;27;20039;-57
2022/12/21 11:15:37;;;;;;;46.85;20.08;;;7.50;99.90;;;;;;5149129;27;20122;-57
2022/12/21 11:18:04;;;;;;;43.47;18.50;;;7.50;99.90;;;;;;5152240;27;20046;-58
2022/12/21 11:20:31;;;;;;;44.28;19.33;;;7.40;99.90;;;;;;5149937;27;20096;-58
2022/12/21 11:23:01;;;;;;;47.20;19.25;;;7.40;99.90;;;;;;5148252;27;20072;-57
2022/12/21 11:25:30;;;;;;;46.20;20.23;;;7.40;99.90;;;;;;5149548;27;20390;-58
2022/12/21 11:28:02;;;;;;;40.55;19.00;;;7.20;99.90;;;;;;5148988;27;20039;-58
2022/12/21 11:30:31;;;;;;;40.33;18.45;;;7.40;99.90;;;;;;5119292;28;20061;-57
2022/12/21 11:32:59;;;;;;;47.72;18.73;;;7.50;99.90;;;;;;5138962;27;20105;-57
2022/12/21 11:35:30;;;;;;;41.33;19.02;;;7.40;99.90;;;;;;5144157;27;20031;-57
2022/12/21 11:38:01;;;;;;;45.42;16.55;;;7.30;99.90;;;;;;5154081;27;20042;-57
2022/12/21 11:40:28;;;;;;;45.92;16.60;;;7.70;99.90;;;;;;5159674;27;20494;-57
2022/12/21 11:43:00;;;;;;;42.58;17.33;;;7.50;99.90;;;;;;5158281;27;20039;-56
2022/12/21 11:45:43;;;;;;;36.97;15.60;;;7.30;99.90;;;;;;5140913;27;20119;-57
2022/12/21 11:48:11;;;;;;;;;;;7.50;99.90;;;;;;5159455;27;20424;-57
2022/12/21 11:50:37;;;;;;;36.90;15.55;;;7.40;99.90;;;;;;5159184;27;19923;-57
2022/12/21 11:53:02;;;;;;;42.58;17.55;;;7.30;99.90;;;;;;5159471;27;20042;-56
2022/12/21 11:55:44;;;;;;;37.47;15.43;;;7.50;99.90;;;;;;5151669;27;20051;-59
2022/12/21 11:58:19;;;;;;;47.08;17.73;;;7.70;99.90;;;;;;5138556;28;20055;-57
2022/12/21 12:01:05;;;;;;;40.65;16.55;;;7.60;99.90;;;;;;5137406;28;20055;-57
2022/12/21 12:03:57;;;;;;;39.75;15.68;;;7.70;99.90;;;;;;5137061;28;20035;-57
2022/12/21 12:06:34;;;;;;;37.00;14.75;;;7.80;99.90;;;;;;5123729;28;20058;-57
2022/12/21 12:09:42;;;;;;;39.28;15.27;;;7.50;99.90;;;;;;5136820;28;20040;-57
2022/12/21 12:12:35;;;;;;;40.03;15.77;;;7.60;99.90;;;;;;5135086;28;20739;-57
2022/12/21 12:15:38;;;;;;;32.85;14.48;;;7.80;99.90;;;;;;5138111;28;20062;-54
2022/12/21 12:18:30;;;;;;;34.17;13.48;;;7.70;99.90;;;;;;5140630;27;20064;-56
2022/12/21 12:21:25;;;;;;;36.92;14.25;;;7.90;99.90;;;;;;5141656;27;20453;-57
2022/12/21 12:24:12;;;;;;;35.22;14.07;;;7.80;99.90;;;;;;5103859;27;20585;-57
2022/12/21 12:26:53;;;;;;;31.55;12.30;;;7.90;99.90;;;;;;5123197;27;20092;-57
2022/12/21 12:29:25;;;;;;;33.67;13.13;;;7.70;99.90;;;;;;5141068;27;20045;-57
2022/12/21 12:32:09;;;;;;;43.78;14.55;;;8.00;99.90;;;;;;5142512;27;20511;-56
2022/12/21 12:35:08;;;;;;;32.85;12.80;;;7.90;99.90;;;;;;5121827;27;20465;-57
2022/12/21 12:37:52;;;;;;;26.92;10.10;;;8.00;99.90;;;;;;5142258;27;20047;-57
2022/12/21 12:40:50;;;;;;;28.75;11.13;;;8.00;99.90;;;;;;5142464;27;20043;-57
2022/12/21 12:43:21;;;;;;;31.05;12.32;;;8.00;99.90;;;;;;5126762;27;20047;-57
2022/12/21 12:46:26;;;;;;;29.52;12.23;;;7.90;99.90;;;;;;5141834;27;20057;-57
2022/12/21 12:49:27;;;;;;;31.75;12.25;;;7.90;99.90;;;;;;5137411;27;20039;-57
2022/12/21 12:52:01;;;;;;;31.23;12.82;;;8.10;99.90;;;;;;5135716;27;20051;-57
2022/12/21 12:54:36;;;;;;;34.70;13.30;;;8.00;99.90;;;;;;5141687;27;20486;-57
2022/12/21 12:57:29;;;;;;;29.45;10.90;;;8.00;99.90;;;;;;5161675;27;20039;-57
2022/12/21 13:00:08;;;;;;;33.75;12.55;;;8.10;99.90;;;;;;5161286;27;20070;-57
2022/12/21 13:03:02;;;;;;;37.88;14.68;;;8.10;99.90;;;;;;5162093;27;20043;-56
2022/12/21 13:05:47;;;;;;;34.20;12.77;;;7.90;99.90;;;;;;5162154;27;20047;-56
2022/12/21 13:08:31;;;;;;;36.28;12.55;;;8.00;99.90;;;;;;5161940;27;20049;-58